Terminal Aerodrome Forecast
Issued by NWS

Home | Current Version | Previous Version | Text Only | Print | Product List | Glossary On
Versions: 1 2 3 4 5 6 7 8 9 10 11 12 13 14 15
000
FTUS43 KDLH 162339
TAFHIB
TAF
KHIB 162339Z 1700/1724 36014G23KT P6SM BKN028 OVC035
     FM170200 01010KT P6SM SCT070
     FM172000 05007KT P6SM SCT050=

USA.gov is the U.S. government's official web portal to all federal, state and local government web resources and services.